Governor's Harbour, The Bahamas
Current Conditions -  °F | °C
As of 11:00 AM on Thursday 30 Oct 2014 (Local Time) from MYNN Reporting Station
Scattered Clouds Scattered Clouds  
Wind Chill: 81°   Ceiling: Unl
Heat Index: 85°   Visibility: 6mi
Dew Point: 72°   Wind: 2mph
Humidity: 74%   Direction: NA
Pressure: 29.96"   Gusts: NA
Location:  25.17°N, 76.23°W
Report Text: MYNN 301500Z VRB02KT 9999 SCT020 27/22 A2996
Loading
Personal Weather Stations






























Interactive Weather Map
Tropical Storm Tracking
New forecast layout! Learn more

10-Day Weather Forecast

Advertisements
Track Severe Weather on mobile